<?xml version="1.0" encoding="UTF-8" standalone="no" ?>
<gpx xmlns="http://www.topografix.com/GPX/1/1" xmlns:xsi="http://www.w3.org/2001/XMLSchema-instance" xsi:schemaLocation="http://www.topografix.com/GPX/1/1 http://www.topografix.com/GPX/1/1/gpx.xsd" version="1.1" creator="VisuGPX - https://www.visugpx.com">
  <metadata>
    <name>PREAUX 03/06/2021</name>
  </metadata>
  <trk>
    <name><![CDATA[Randonnée du 03/06/2021 à 13:28]]></name>
    <trkseg>
      <trkpt lat="45.14149" lon="4.66371">
        <ele>517</ele>
        <time>2021-06-03T13:28:51+02:00</time>
      </trkpt>
      <trkpt lat="45.14154" lon="4.66339">
        <ele>518</ele>
        <time>2021-06-03T13:31:26+02:00</time>
      </trkpt>
      <trkpt lat="45.14169" lon="4.66315">
        <ele>517</ele>
        <time>2021-06-03T13:31:42+02:00</time>
      </trkpt>
      <trkpt lat="45.14174" lon="4.66283">
        <ele>517</ele>
        <time>2021-06-03T13:31:58+02:00</time>
      </trkpt>
      <trkpt lat="45.14189" lon="4.6631">
        <ele>516</ele>
        <time>2021-06-03T13:32:07+02:00</time>
      </trkpt>
      <trkpt lat="45.14212" lon="4.66321">
        <ele>516</ele>
        <time>2021-06-03T13:32:17+02:00</time>
      </trkpt>
      <trkpt lat="45.14246" lon="4.66387">
        <ele>515</ele>
        <time>2021-06-03T13:33:07+02:00</time>
      </trkpt>
      <trkpt lat="45.14262" lon="4.6641">
        <ele>515</ele>
        <time>2021-06-03T13:33:38+02:00</time>
      </trkpt>
      <trkpt lat="45.14284" lon="4.66422">
        <ele>515</ele>
        <time>2021-06-03T13:33:59+02:00</time>
      </trkpt>
      <trkpt lat="45.14305" lon="4.66434">
        <ele>515</ele>
        <time>2021-06-03T13:34:18+02:00</time>
      </trkpt>
      <trkpt lat="45.1432" lon="4.66459">
        <ele>514</ele>
        <time>2021-06-03T13:34:36+02:00</time>
      </trkpt>
      <trkpt lat="45.14306" lon="4.66484">
        <ele>513</ele>
        <time>2021-06-03T13:34:56+02:00</time>
      </trkpt>
      <trkpt lat="45.14298" lon="4.66515">
        <ele>512</ele>
        <time>2021-06-03T13:35:05+02:00</time>
      </trkpt>
      <trkpt lat="45.14323" lon="4.665">
        <ele>513</ele>
        <time>2021-06-03T13:35:14+02:00</time>
      </trkpt>
      <trkpt lat="45.14339" lon="4.66523">
        <ele>511</ele>
        <time>2021-06-03T13:35:35+02:00</time>
      </trkpt>
      <trkpt lat="45.14349" lon="4.66554">
        <ele>508</ele>
        <time>2021-06-03T13:35:45+02:00</time>
      </trkpt>
      <trkpt lat="45.14353" lon="4.66585">
        <ele>506</ele>
        <time>2021-06-03T13:36:01+02:00</time>
      </trkpt>
      <trkpt lat="45.14349" lon="4.66617">
        <ele>505</ele>
        <time>2021-06-03T13:36:16+02:00</time>
      </trkpt>
      <trkpt lat="45.14362" lon="4.66644">
        <ele>503</ele>
        <time>2021-06-03T13:36:29+02:00</time>
      </trkpt>
      <trkpt lat="45.14355" lon="4.66675">
        <ele>503</ele>
        <time>2021-06-03T13:36:58+02:00</time>
      </trkpt>
      <trkpt lat="45.14363" lon="4.66706">
        <ele>502</ele>
        <time>2021-06-03T13:37:15+02:00</time>
      </trkpt>
      <trkpt lat="45.14372" lon="4.66737">
        <ele>501</ele>
        <time>2021-06-03T13:37:40+02:00</time>
      </trkpt>
      <trkpt lat="45.14351" lon="4.6676">
        <ele>502</ele>
        <time>2021-06-03T13:37:52+02:00</time>
      </trkpt>
      <trkpt lat="45.14338" lon="4.66789">
        <ele>499</ele>
        <time>2021-06-03T13:38:12+02:00</time>
      </trkpt>
      <trkpt lat="45.14317" lon="4.66806">
        <ele>498</ele>
        <time>2021-06-03T13:38:24+02:00</time>
      </trkpt>
      <trkpt lat="45.14315" lon="4.66839">
        <ele>495</ele>
        <time>2021-06-03T13:38:46+02:00</time>
      </trkpt>
      <trkpt lat="45.14305" lon="4.66869">
        <ele>493</ele>
        <time>2021-06-03T13:38:53+02:00</time>
      </trkpt>
      <trkpt lat="45.14293" lon="4.66896">
        <ele>491</ele>
        <time>2021-06-03T13:39:03+02:00</time>
      </trkpt>
      <trkpt lat="45.14281" lon="4.66925">
        <ele>489</ele>
        <time>2021-06-03T13:39:31+02:00</time>
      </trkpt>
      <trkpt lat="45.14269" lon="4.66953">
        <ele>487</ele>
        <time>2021-06-03T13:39:41+02:00</time>
      </trkpt>
      <trkpt lat="45.14273" lon="4.66985">
        <ele>486</ele>
        <time>2021-06-03T13:39:53+02:00</time>
      </trkpt>
      <trkpt lat="45.14288" lon="4.67012">
        <ele>485</ele>
        <time>2021-06-03T13:40:12+02:00</time>
      </trkpt>
      <trkpt lat="45.14285" lon="4.67044">
        <ele>483</ele>
        <time>2021-06-03T13:40:36+02:00</time>
      </trkpt>
      <trkpt lat="45.1428" lon="4.67075">
        <ele>481</ele>
        <time>2021-06-03T13:40:47+02:00</time>
      </trkpt>
      <trkpt lat="45.14276" lon="4.67106">
        <ele>478</ele>
        <time>2021-06-03T13:41:04+02:00</time>
      </trkpt>
      <trkpt lat="45.14273" lon="4.67138">
        <ele>477</ele>
        <time>2021-06-03T13:41:23+02:00</time>
      </trkpt>
      <trkpt lat="45.14271" lon="4.67172">
        <ele>475</ele>
        <time>2021-06-03T13:41:42+02:00</time>
      </trkpt>
      <trkpt lat="45.14271" lon="4.67204">
        <ele>474</ele>
        <time>2021-06-03T13:42:03+02:00</time>
      </trkpt>
      <trkpt lat="45.14267" lon="4.67235">
        <ele>473</ele>
        <time>2021-06-03T13:42:24+02:00</time>
      </trkpt>
      <trkpt lat="45.14257" lon="4.67264">
        <ele>471</ele>
        <time>2021-06-03T13:42:40+02:00</time>
      </trkpt>
      <trkpt lat="45.14246" lon="4.67293">
        <ele>467</ele>
        <time>2021-06-03T13:42:58+02:00</time>
      </trkpt>
      <trkpt lat="45.14237" lon="4.67323">
        <ele>462</ele>
        <time>2021-06-03T13:43:23+02:00</time>
      </trkpt>
      <trkpt lat="45.14236" lon="4.67355">
        <ele>459</ele>
        <time>2021-06-03T13:43:40+02:00</time>
      </trkpt>
      <trkpt lat="45.14235" lon="4.67389">
        <ele>455</ele>
        <time>2021-06-03T13:44:02+02:00</time>
      </trkpt>
      <trkpt lat="45.14216" lon="4.67405">
        <ele>447</ele>
        <time>2021-06-03T13:44:36+02:00</time>
      </trkpt>
      <trkpt lat="45.14197" lon="4.67424">
        <ele>439</ele>
        <time>2021-06-03T13:45:02+02:00</time>
      </trkpt>
      <trkpt lat="45.14194" lon="4.67456">
        <ele>432</ele>
        <time>2021-06-03T13:45:29+02:00</time>
      </trkpt>
      <trkpt lat="45.14193" lon="4.67488">
        <ele>426</ele>
        <time>2021-06-03T13:45:57+02:00</time>
      </trkpt>
      <trkpt lat="45.14209" lon="4.67511">
        <ele>427</ele>
        <time>2021-06-03T13:46:22+02:00</time>
      </trkpt>
      <trkpt lat="45.14209" lon="4.67543">
        <ele>421</ele>
        <time>2021-06-03T13:46:49+02:00</time>
      </trkpt>
      <trkpt lat="45.14201" lon="4.67573">
        <ele>414</ele>
        <time>2021-06-03T13:47:03+02:00</time>
      </trkpt>
      <trkpt lat="45.14179" lon="4.67567">
        <ele>409</ele>
        <time>2021-06-03T13:47:53+02:00</time>
      </trkpt>
      <trkpt lat="45.1416" lon="4.67548">
        <ele>408</ele>
        <time>2021-06-03T13:48:24+02:00</time>
      </trkpt>
      <trkpt lat="45.14139" lon="4.67534">
        <ele>407</ele>
        <time>2021-06-03T13:48:45+02:00</time>
      </trkpt>
      <trkpt lat="45.14125" lon="4.67508">
        <ele>407</ele>
        <time>2021-06-03T13:49:03+02:00</time>
      </trkpt>
      <trkpt lat="45.14097" lon="4.67507">
        <ele>403</ele>
        <time>2021-06-03T13:50:16+02:00</time>
      </trkpt>
      <trkpt lat="45.14093" lon="4.67539">
        <ele>403</ele>
        <time>2021-06-03T13:50:25+02:00</time>
      </trkpt>
      <trkpt lat="45.14102" lon="4.67495">
        <ele>405</ele>
        <time>2021-06-03T13:51:26+02:00</time>
      </trkpt>
      <trkpt lat="45.14097" lon="4.67527">
        <ele>403</ele>
        <time>2021-06-03T13:51:41+02:00</time>
      </trkpt>
      <trkpt lat="45.13948" lon="4.67703">
        <ele>434</ele>
        <time>2021-06-03T13:58:16+02:00</time>
      </trkpt>
      <trkpt lat="45.13926" lon="4.67712">
        <ele>438</ele>
        <time>2021-06-03T13:58:59+02:00</time>
      </trkpt>
      <trkpt lat="45.13904" lon="4.67703">
        <ele>442</ele>
        <time>2021-06-03T13:59:34+02:00</time>
      </trkpt>
      <trkpt lat="45.13884" lon="4.67719">
        <ele>447</ele>
        <time>2021-06-03T14:03:14+02:00</time>
      </trkpt>
      <trkpt lat="45.13862" lon="4.67713">
        <ele>452</ele>
        <time>2021-06-03T14:03:40+02:00</time>
      </trkpt>
      <trkpt lat="45.13856" lon="4.67681">
        <ele>451</ele>
        <time>2021-06-03T14:04:04+02:00</time>
      </trkpt>
      <trkpt lat="45.13843" lon="4.67653">
        <ele>452</ele>
        <time>2021-06-03T14:04:23+02:00</time>
      </trkpt>
      <trkpt lat="45.13836" lon="4.67622">
        <ele>450</ele>
        <time>2021-06-03T14:04:44+02:00</time>
      </trkpt>
      <trkpt lat="45.13826" lon="4.67592">
        <ele>449</ele>
        <time>2021-06-03T14:05:03+02:00</time>
      </trkpt>
      <trkpt lat="45.13812" lon="4.67566">
        <ele>448</ele>
        <time>2021-06-03T14:05:21+02:00</time>
      </trkpt>
      <trkpt lat="45.13795" lon="4.67544">
        <ele>447</ele>
        <time>2021-06-03T14:05:43+02:00</time>
      </trkpt>
      <trkpt lat="45.13777" lon="4.67524">
        <ele>446</ele>
        <time>2021-06-03T14:06:00+02:00</time>
      </trkpt>
      <trkpt lat="45.13762" lon="4.67499">
        <ele>444</ele>
        <time>2021-06-03T14:06:19+02:00</time>
      </trkpt>
      <trkpt lat="45.13742" lon="4.67487">
        <ele>444</ele>
        <time>2021-06-03T14:06:41+02:00</time>
      </trkpt>
      <trkpt lat="45.13727" lon="4.67461">
        <ele>441</ele>
        <time>2021-06-03T14:06:59+02:00</time>
      </trkpt>
      <trkpt lat="45.13708" lon="4.67442">
        <ele>440</ele>
        <time>2021-06-03T14:07:20+02:00</time>
      </trkpt>
      <trkpt lat="45.13685" lon="4.67433">
        <ele>440</ele>
        <time>2021-06-03T14:07:43+02:00</time>
      </trkpt>
      <trkpt lat="45.13664" lon="4.6742">
        <ele>440</ele>
        <time>2021-06-03T14:08:04+02:00</time>
      </trkpt>
      <trkpt lat="45.13642" lon="4.67407">
        <ele>441</ele>
        <time>2021-06-03T14:08:29+02:00</time>
      </trkpt>
      <trkpt lat="45.1362" lon="4.67403">
        <ele>442</ele>
        <time>2021-06-03T14:08:49+02:00</time>
      </trkpt>
      <trkpt lat="45.13626" lon="4.67371">
        <ele>441</ele>
        <time>2021-06-03T14:09:14+02:00</time>
      </trkpt>
      <trkpt lat="45.13645" lon="4.6735">
        <ele>439</ele>
        <time>2021-06-03T14:09:39+02:00</time>
      </trkpt>
      <trkpt lat="45.13667" lon="4.67334">
        <ele>437</ele>
        <time>2021-06-03T14:10:00+02:00</time>
      </trkpt>
      <trkpt lat="45.13682" lon="4.67309">
        <ele>435</ele>
        <time>2021-06-03T14:10:22+02:00</time>
      </trkpt>
      <trkpt lat="45.13659" lon="4.67309">
        <ele>437</ele>
        <time>2021-06-03T14:11:22+02:00</time>
      </trkpt>
      <trkpt lat="45.13636" lon="4.67311">
        <ele>439</ele>
        <time>2021-06-03T14:11:44+02:00</time>
      </trkpt>
      <trkpt lat="45.13613" lon="4.67315">
        <ele>441</ele>
        <time>2021-06-03T14:12:15+02:00</time>
      </trkpt>
      <trkpt lat="45.13591" lon="4.67307">
        <ele>443</ele>
        <time>2021-06-03T14:12:37+02:00</time>
      </trkpt>
      <trkpt lat="45.13575" lon="4.67285">
        <ele>446</ele>
        <time>2021-06-03T14:12:56+02:00</time>
      </trkpt>
      <trkpt lat="45.13564" lon="4.67257">
        <ele>449</ele>
        <time>2021-06-03T14:14:31+02:00</time>
      </trkpt>
      <trkpt lat="45.13557" lon="4.67226">
        <ele>451</ele>
        <time>2021-06-03T14:15:00+02:00</time>
      </trkpt>
      <trkpt lat="45.13549" lon="4.67197">
        <ele>452</ele>
        <time>2021-06-03T14:15:20+02:00</time>
      </trkpt>
      <trkpt lat="45.1354" lon="4.67167">
        <ele>455</ele>
        <time>2021-06-03T14:15:39+02:00</time>
      </trkpt>
      <trkpt lat="45.13528" lon="4.67139">
        <ele>460</ele>
        <time>2021-06-03T14:15:57+02:00</time>
      </trkpt>
      <trkpt lat="45.13516" lon="4.67112">
        <ele>463</ele>
        <time>2021-06-03T14:16:16+02:00</time>
      </trkpt>
      <trkpt lat="45.13509" lon="4.67142">
        <ele>466</ele>
        <time>2021-06-03T14:16:55+02:00</time>
      </trkpt>
      <trkpt lat="45.13501" lon="4.67173">
        <ele>469</ele>
        <time>2021-06-03T14:17:19+02:00</time>
      </trkpt>
      <trkpt lat="45.13482" lon="4.67192">
        <ele>471</ele>
        <time>2021-06-03T14:17:45+02:00</time>
      </trkpt>
      <trkpt lat="45.13459" lon="4.67198">
        <ele>475</ele>
        <time>2021-06-03T14:18:09+02:00</time>
      </trkpt>
      <trkpt lat="45.13435" lon="4.67189">
        <ele>479</ele>
        <time>2021-06-03T14:18:33+02:00</time>
      </trkpt>
      <trkpt lat="45.13417" lon="4.6717">
        <ele>484</ele>
        <time>2021-06-03T14:18:51+02:00</time>
      </trkpt>
      <trkpt lat="45.13397" lon="4.67154">
        <ele>485</ele>
        <time>2021-06-03T14:19:12+02:00</time>
      </trkpt>
      <trkpt lat="45.13378" lon="4.67137">
        <ele>485</ele>
        <time>2021-06-03T14:19:30+02:00</time>
      </trkpt>
      <trkpt lat="45.13354" lon="4.67136">
        <ele>486</ele>
        <time>2021-06-03T14:19:53+02:00</time>
      </trkpt>
      <trkpt lat="45.13335" lon="4.67153">
        <ele>488</ele>
        <time>2021-06-03T14:20:11+02:00</time>
      </trkpt>
      <trkpt lat="45.13322" lon="4.6718">
        <ele>491</ele>
        <time>2021-06-03T14:20:30+02:00</time>
      </trkpt>
      <trkpt lat="45.13302" lon="4.67196">
        <ele>496</ele>
        <time>2021-06-03T14:20:49+02:00</time>
      </trkpt>
      <trkpt lat="45.1328" lon="4.67208">
        <ele>501</ele>
        <time>2021-06-03T14:21:02+02:00</time>
      </trkpt>
      <trkpt lat="45.13274" lon="4.67239">
        <ele>504</ele>
        <time>2021-06-03T14:21:28+02:00</time>
      </trkpt>
      <trkpt lat="45.13268" lon="4.67271">
        <ele>507</ele>
        <time>2021-06-03T14:21:49+02:00</time>
      </trkpt>
      <trkpt lat="45.13259" lon="4.67304">
        <ele>509</ele>
        <time>2021-06-03T14:22:12+02:00</time>
      </trkpt>
      <trkpt lat="45.1324" lon="4.67326">
        <ele>515</ele>
        <time>2021-06-03T14:22:34+02:00</time>
      </trkpt>
      <trkpt lat="45.13233" lon="4.67284">
        <ele>515</ele>
        <time>2021-06-03T14:22:53+02:00</time>
      </trkpt>
      <trkpt lat="45.13232" lon="4.6736">
        <ele>514</ele>
        <time>2021-06-03T14:23:17+02:00</time>
      </trkpt>
      <trkpt lat="45.13257" lon="4.6736">
        <ele>507</ele>
        <time>2021-06-03T14:23:21+02:00</time>
      </trkpt>
      <trkpt lat="45.13274" lon="4.67381">
        <ele>501</ele>
        <time>2021-06-03T14:23:26+02:00</time>
      </trkpt>
      <trkpt lat="45.13247" lon="4.67373">
        <ele>509</ele>
        <time>2021-06-03T14:23:48+02:00</time>
      </trkpt>
      <trkpt lat="45.13224" lon="4.67377">
        <ele>515</ele>
        <time>2021-06-03T14:24:09+02:00</time>
      </trkpt>
      <trkpt lat="45.13228" lon="4.67409">
        <ele>511</ele>
        <time>2021-06-03T14:24:34+02:00</time>
      </trkpt>
      <trkpt lat="45.13255" lon="4.67416">
        <ele>503</ele>
        <time>2021-06-03T14:24:41+02:00</time>
      </trkpt>
      <trkpt lat="45.13281" lon="4.67443">
        <ele>496</ele>
        <time>2021-06-03T14:24:45+02:00</time>
      </trkpt>
      <trkpt lat="45.13242" lon="4.67472">
        <ele>501</ele>
        <time>2021-06-03T14:24:57+02:00</time>
      </trkpt>
      <trkpt lat="45.13226" lon="4.67441">
        <ele>509</ele>
        <time>2021-06-03T14:24:58+02:00</time>
      </trkpt>
      <trkpt lat="45.13219" lon="4.6741">
        <ele>514</ele>
        <time>2021-06-03T14:25:01+02:00</time>
      </trkpt>
      <trkpt lat="45.13195" lon="4.67411">
        <ele>521</ele>
        <time>2021-06-03T14:28:38+02:00</time>
      </trkpt>
      <trkpt lat="45.13193" lon="4.67444">
        <ele>518</ele>
        <time>2021-06-03T14:29:07+02:00</time>
      </trkpt>
      <trkpt lat="45.1319" lon="4.67477">
        <ele>514</ele>
        <time>2021-06-03T14:29:25+02:00</time>
      </trkpt>
      <trkpt lat="45.13175" lon="4.67501">
        <ele>515</ele>
        <time>2021-06-03T14:29:50+02:00</time>
      </trkpt>
      <trkpt lat="45.13154" lon="4.67516">
        <ele>519</ele>
        <time>2021-06-03T14:30:10+02:00</time>
      </trkpt>
      <trkpt lat="45.13144" lon="4.67545">
        <ele>519</ele>
        <time>2021-06-03T14:30:32+02:00</time>
      </trkpt>
      <trkpt lat="45.13136" lon="4.67576">
        <ele>517</ele>
        <time>2021-06-03T14:30:52+02:00</time>
      </trkpt>
      <trkpt lat="45.13122" lon="4.67602">
        <ele>518</ele>
        <time>2021-06-03T14:31:12+02:00</time>
      </trkpt>
      <trkpt lat="45.13131" lon="4.67631">
        <ele>520</ele>
        <time>2021-06-03T14:31:48+02:00</time>
      </trkpt>
      <trkpt lat="45.13153" lon="4.67645">
        <ele>521</ele>
        <time>2021-06-03T14:32:13+02:00</time>
      </trkpt>
      <trkpt lat="45.13176" lon="4.67644">
        <ele>521</ele>
        <time>2021-06-03T14:32:38+02:00</time>
      </trkpt>
      <trkpt lat="45.13199" lon="4.67641">
        <ele>520</ele>
        <time>2021-06-03T14:33:10+02:00</time>
      </trkpt>
      <trkpt lat="45.13222" lon="4.67639">
        <ele>520</ele>
        <time>2021-06-03T14:33:36+02:00</time>
      </trkpt>
      <trkpt lat="45.13244" lon="4.67642">
        <ele>520</ele>
        <time>2021-06-03T14:34:00+02:00</time>
      </trkpt>
      <trkpt lat="45.13266" lon="4.67652">
        <ele>520</ele>
        <time>2021-06-03T14:34:19+02:00</time>
      </trkpt>
      <trkpt lat="45.1328" lon="4.67679">
        <ele>522</ele>
        <time>2021-06-03T14:34:41+02:00</time>
      </trkpt>
      <trkpt lat="45.13289" lon="4.67709">
        <ele>524</ele>
        <time>2021-06-03T14:35:02+02:00</time>
      </trkpt>
      <trkpt lat="45.13289" lon="4.67741">
        <ele>528</ele>
        <time>2021-06-03T14:35:31+02:00</time>
      </trkpt>
      <trkpt lat="45.13292" lon="4.67776">
        <ele>533</ele>
        <time>2021-06-03T14:35:49+02:00</time>
      </trkpt>
      <trkpt lat="45.13302" lon="4.67807">
        <ele>537</ele>
        <time>2021-06-03T14:36:10+02:00</time>
      </trkpt>
      <trkpt lat="45.13326" lon="4.67797">
        <ele>530</ele>
        <time>2021-06-03T14:37:03+02:00</time>
      </trkpt>
      <trkpt lat="45.13344" lon="4.67769">
        <ele>522</ele>
        <time>2021-06-03T14:37:07+02:00</time>
      </trkpt>
      <trkpt lat="45.13357" lon="4.67739">
        <ele>516</ele>
        <time>2021-06-03T14:37:10+02:00</time>
      </trkpt>
      <trkpt lat="45.13376" lon="4.67703">
        <ele>508</ele>
        <time>2021-06-03T14:37:14+02:00</time>
      </trkpt>
      <trkpt lat="45.13352" lon="4.67752">
        <ele>518</ele>
        <time>2021-06-03T14:37:15+02:00</time>
      </trkpt>
      <trkpt lat="45.13341" lon="4.6778">
        <ele>525</ele>
        <time>2021-06-03T14:37:16+02:00</time>
      </trkpt>
      <trkpt lat="45.13328" lon="4.6781">
        <ele>532</ele>
        <time>2021-06-03T14:37:18+02:00</time>
      </trkpt>
      <trkpt lat="45.13318" lon="4.67844">
        <ele>542</ele>
        <time>2021-06-03T14:37:25+02:00</time>
      </trkpt>
      <trkpt lat="45.13337" lon="4.67863">
        <ele>545</ele>
        <time>2021-06-03T14:37:40+02:00</time>
      </trkpt>
      <trkpt lat="45.13356" lon="4.67883">
        <ele>550</ele>
        <time>2021-06-03T14:38:02+02:00</time>
      </trkpt>
      <trkpt lat="45.13371" lon="4.67906">
        <ele>555</ele>
        <time>2021-06-03T14:38:22+02:00</time>
      </trkpt>
      <trkpt lat="45.13391" lon="4.67926">
        <ele>558</ele>
        <time>2021-06-03T14:38:41+02:00</time>
      </trkpt>
      <trkpt lat="45.13413" lon="4.67938">
        <ele>556</ele>
        <time>2021-06-03T14:39:04+02:00</time>
      </trkpt>
      <trkpt lat="45.13433" lon="4.67919">
        <ele>551</ele>
        <time>2021-06-03T14:39:35+02:00</time>
      </trkpt>
      <trkpt lat="45.13455" lon="4.67933">
        <ele>552</ele>
        <time>2021-06-03T14:39:57+02:00</time>
      </trkpt>
      <trkpt lat="45.13458" lon="4.67965">
        <ele>557</ele>
        <time>2021-06-03T14:40:11+02:00</time>
      </trkpt>
      <trkpt lat="45.13455" lon="4.67997">
        <ele>562</ele>
        <time>2021-06-03T14:40:27+02:00</time>
      </trkpt>
      <trkpt lat="45.13462" lon="4.68027">
        <ele>564</ele>
        <time>2021-06-03T14:40:51+02:00</time>
      </trkpt>
      <trkpt lat="45.13467" lon="4.6806">
        <ele>566</ele>
        <time>2021-06-03T14:41:12+02:00</time>
      </trkpt>
      <trkpt lat="45.13474" lon="4.68092">
        <ele>568</ele>
        <time>2021-06-03T14:41:34+02:00</time>
      </trkpt>
      <trkpt lat="45.13478" lon="4.68125">
        <ele>568</ele>
        <time>2021-06-03T14:41:53+02:00</time>
      </trkpt>
      <trkpt lat="45.13484" lon="4.68155">
        <ele>568</ele>
        <time>2021-06-03T14:42:11+02:00</time>
      </trkpt>
      <trkpt lat="45.13487" lon="4.68189">
        <ele>569</ele>
        <time>2021-06-03T14:42:37+02:00</time>
      </trkpt>
      <trkpt lat="45.13488" lon="4.68222">
        <ele>570</ele>
        <time>2021-06-03T14:42:55+02:00</time>
      </trkpt>
      <trkpt lat="45.1349" lon="4.68254">
        <ele>570</ele>
        <time>2021-06-03T14:43:11+02:00</time>
      </trkpt>
      <trkpt lat="45.13487" lon="4.68287">
        <ele>570</ele>
        <time>2021-06-03T14:43:30+02:00</time>
      </trkpt>
      <trkpt lat="45.13479" lon="4.68317">
        <ele>571</ele>
        <time>2021-06-03T14:43:53+02:00</time>
      </trkpt>
      <trkpt lat="45.13472" lon="4.68349">
        <ele>570</ele>
        <time>2021-06-03T14:44:11+02:00</time>
      </trkpt>
      <trkpt lat="45.13457" lon="4.68374">
        <ele>569</ele>
        <time>2021-06-03T14:44:37+02:00</time>
      </trkpt>
      <trkpt lat="45.13434" lon="4.68375">
        <ele>571</ele>
        <time>2021-06-03T14:44:57+02:00</time>
      </trkpt>
      <trkpt lat="45.13411" lon="4.68374">
        <ele>574</ele>
        <time>2021-06-03T14:45:22+02:00</time>
      </trkpt>
      <trkpt lat="45.13388" lon="4.68369">
        <ele>578</ele>
        <time>2021-06-03T14:45:41+02:00</time>
      </trkpt>
      <trkpt lat="45.13365" lon="4.68367">
        <ele>582</ele>
        <time>2021-06-03T14:46:13+02:00</time>
      </trkpt>
      <trkpt lat="45.13344" lon="4.68359">
        <ele>588</ele>
        <time>2021-06-03T14:46:36+02:00</time>
      </trkpt>
      <trkpt lat="45.13321" lon="4.68354">
        <ele>591</ele>
        <time>2021-06-03T14:47:06+02:00</time>
      </trkpt>
      <trkpt lat="45.13299" lon="4.68349">
        <ele>594</ele>
        <time>2021-06-03T14:47:33+02:00</time>
      </trkpt>
      <trkpt lat="45.13275" lon="4.68343">
        <ele>597</ele>
        <time>2021-06-03T14:47:58+02:00</time>
      </trkpt>
      <trkpt lat="45.13254" lon="4.68335">
        <ele>600</ele>
        <time>2021-06-03T14:48:22+02:00</time>
      </trkpt>
      <trkpt lat="45.13232" lon="4.68323">
        <ele>604</ele>
        <time>2021-06-03T14:48:57+02:00</time>
      </trkpt>
      <trkpt lat="45.13222" lon="4.68294">
        <ele>607</ele>
        <time>2021-06-03T14:49:16+02:00</time>
      </trkpt>
      <trkpt lat="45.13207" lon="4.68268">
        <ele>610</ele>
        <time>2021-06-03T14:49:34+02:00</time>
      </trkpt>
      <trkpt lat="45.13184" lon="4.6826">
        <ele>611</ele>
        <time>2021-06-03T14:49:55+02:00</time>
      </trkpt>
      <trkpt lat="45.13163" lon="4.68248">
        <ele>611</ele>
        <time>2021-06-03T14:50:14+02:00</time>
      </trkpt>
      <trkpt lat="45.13141" lon="4.68244">
        <ele>614</ele>
        <time>2021-06-03T14:50:36+02:00</time>
      </trkpt>
      <trkpt lat="45.1312" lon="4.68233">
        <ele>616</ele>
        <time>2021-06-03T14:50:51+02:00</time>
      </trkpt>
      <trkpt lat="45.13096" lon="4.68232">
        <ele>618</ele>
        <time>2021-06-03T14:51:15+02:00</time>
      </trkpt>
      <trkpt lat="45.131" lon="4.68201">
        <ele>617</ele>
        <time>2021-06-03T14:52:32+02:00</time>
      </trkpt>
      <trkpt lat="45.13079" lon="4.68186">
        <ele>619</ele>
        <time>2021-06-03T14:54:01+02:00</time>
      </trkpt>
      <trkpt lat="45.13102" lon="4.6821">
        <ele>617</ele>
        <time>2021-06-03T14:54:05+02:00</time>
      </trkpt>
      <trkpt lat="45.1309" lon="4.68237">
        <ele>618</ele>
        <time>2021-06-03T14:54:39+02:00</time>
      </trkpt>
      <trkpt lat="45.13067" lon="4.68236">
        <ele>621</ele>
        <time>2021-06-03T15:00:41+02:00</time>
      </trkpt>
      <trkpt lat="45.13044" lon="4.6824">
        <ele>624</ele>
        <time>2021-06-03T15:01:00+02:00</time>
      </trkpt>
      <trkpt lat="45.13022" lon="4.6825">
        <ele>626</ele>
        <time>2021-06-03T15:01:20+02:00</time>
      </trkpt>
      <trkpt lat="45.12999" lon="4.68241">
        <ele>629</ele>
        <time>2021-06-03T15:01:50+02:00</time>
      </trkpt>
      <trkpt lat="45.12977" lon="4.68231">
        <ele>631</ele>
        <time>2021-06-03T15:02:13+02:00</time>
      </trkpt>
      <trkpt lat="45.12954" lon="4.68225">
        <ele>632</ele>
        <time>2021-06-03T15:02:26+02:00</time>
      </trkpt>
      <trkpt lat="45.12931" lon="4.6823">
        <ele>632</ele>
        <time>2021-06-03T15:02:53+02:00</time>
      </trkpt>
      <trkpt lat="45.12907" lon="4.68228">
        <ele>635</ele>
        <time>2021-06-03T15:03:12+02:00</time>
      </trkpt>
      <trkpt lat="45.12885" lon="4.68238">
        <ele>636</ele>
        <time>2021-06-03T15:03:34+02:00</time>
      </trkpt>
      <trkpt lat="45.12862" lon="4.68239">
        <ele>639</ele>
        <time>2021-06-03T15:03:53+02:00</time>
      </trkpt>
      <trkpt lat="45.12839" lon="4.68242">
        <ele>642</ele>
        <time>2021-06-03T15:04:15+02:00</time>
      </trkpt>
      <trkpt lat="45.12816" lon="4.68246">
        <ele>646</ele>
        <time>2021-06-03T15:04:35+02:00</time>
      </trkpt>
      <trkpt lat="45.12795" lon="4.68261">
        <ele>647</ele>
        <time>2021-06-03T15:04:57+02:00</time>
      </trkpt>
      <trkpt lat="45.1278" lon="4.68236">
        <ele>654</ele>
        <time>2021-06-03T15:05:26+02:00</time>
      </trkpt>
      <trkpt lat="45.12787" lon="4.68204">
        <ele>656</ele>
        <time>2021-06-03T15:05:50+02:00</time>
      </trkpt>
      <trkpt lat="45.12779" lon="4.68174">
        <ele>661</ele>
        <time>2021-06-03T15:06:11+02:00</time>
      </trkpt>
      <trkpt lat="45.12777" lon="4.68142">
        <ele>661</ele>
        <time>2021-06-03T15:06:29+02:00</time>
      </trkpt>
      <trkpt lat="45.12757" lon="4.68125">
        <ele>664</ele>
        <time>2021-06-03T15:06:54+02:00</time>
      </trkpt>
      <trkpt lat="45.12737" lon="4.6811">
        <ele>667</ele>
        <time>2021-06-03T15:07:17+02:00</time>
      </trkpt>
      <trkpt lat="45.12723" lon="4.68085">
        <ele>669</ele>
        <time>2021-06-03T15:07:43+02:00</time>
      </trkpt>
      <trkpt lat="45.12708" lon="4.6806">
        <ele>669</ele>
        <time>2021-06-03T15:08:04+02:00</time>
      </trkpt>
      <trkpt lat="45.12687" lon="4.68046">
        <ele>672</ele>
        <time>2021-06-03T15:08:27+02:00</time>
      </trkpt>
      <trkpt lat="45.12671" lon="4.68023">
        <ele>671</ele>
        <time>2021-06-03T15:08:48+02:00</time>
      </trkpt>
      <trkpt lat="45.12658" lon="4.67995">
        <ele>670</ele>
        <time>2021-06-03T15:09:06+02:00</time>
      </trkpt>
      <trkpt lat="45.12639" lon="4.67977">
        <ele>670</ele>
        <time>2021-06-03T15:09:30+02:00</time>
      </trkpt>
      <trkpt lat="45.12618" lon="4.6796">
        <ele>670</ele>
        <time>2021-06-03T15:09:52+02:00</time>
      </trkpt>
      <trkpt lat="45.12599" lon="4.67942">
        <ele>669</ele>
        <time>2021-06-03T15:10:10+02:00</time>
      </trkpt>
      <trkpt lat="45.12578" lon="4.6793">
        <ele>670</ele>
        <time>2021-06-03T15:10:31+02:00</time>
      </trkpt>
      <trkpt lat="45.12556" lon="4.67919">
        <ele>672</ele>
        <time>2021-06-03T15:10:50+02:00</time>
      </trkpt>
      <trkpt lat="45.12535" lon="4.67905">
        <ele>674</ele>
        <time>2021-06-03T15:11:08+02:00</time>
      </trkpt>
      <trkpt lat="45.12513" lon="4.67892">
        <ele>677</ele>
        <time>2021-06-03T15:11:29+02:00</time>
      </trkpt>
      <trkpt lat="45.12495" lon="4.6787">
        <ele>676</ele>
        <time>2021-06-03T15:11:49+02:00</time>
      </trkpt>
      <trkpt lat="45.12477" lon="4.67849">
        <ele>677</ele>
        <time>2021-06-03T15:12:06+02:00</time>
      </trkpt>
      <trkpt lat="45.12474" lon="4.67816">
        <ele>675</ele>
        <time>2021-06-03T15:12:27+02:00</time>
      </trkpt>
      <trkpt lat="45.12465" lon="4.67785">
        <ele>677</ele>
        <time>2021-06-03T15:12:48+02:00</time>
      </trkpt>
      <trkpt lat="45.12472" lon="4.67754">
        <ele>673</ele>
        <time>2021-06-03T15:13:07+02:00</time>
      </trkpt>
      <trkpt lat="45.12472" lon="4.67721">
        <ele>676</ele>
        <time>2021-06-03T15:13:26+02:00</time>
      </trkpt>
      <trkpt lat="45.12466" lon="4.67689">
        <ele>680</ele>
        <time>2021-06-03T15:13:48+02:00</time>
      </trkpt>
      <trkpt lat="45.12462" lon="4.67658">
        <ele>683</ele>
        <time>2021-06-03T15:14:08+02:00</time>
      </trkpt>
      <trkpt lat="45.12453" lon="4.67627">
        <ele>686</ele>
        <time>2021-06-03T15:14:30+02:00</time>
      </trkpt>
      <trkpt lat="45.12444" lon="4.67596">
        <ele>688</ele>
        <time>2021-06-03T15:14:49+02:00</time>
      </trkpt>
      <trkpt lat="45.12435" lon="4.67565">
        <ele>688</ele>
        <time>2021-06-03T15:15:11+02:00</time>
      </trkpt>
      <trkpt lat="45.12417" lon="4.67544">
        <ele>690</ele>
        <time>2021-06-03T15:15:37+02:00</time>
      </trkpt>
      <trkpt lat="45.12396" lon="4.6753">
        <ele>688</ele>
        <time>2021-06-03T15:15:59+02:00</time>
      </trkpt>
      <trkpt lat="45.12374" lon="4.67521">
        <ele>687</ele>
        <time>2021-06-03T15:16:17+02:00</time>
      </trkpt>
      <trkpt lat="45.12352" lon="4.67529">
        <ele>687</ele>
        <time>2021-06-03T15:16:35+02:00</time>
      </trkpt>
      <trkpt lat="45.12331" lon="4.67545">
        <ele>688</ele>
        <time>2021-06-03T15:16:54+02:00</time>
      </trkpt>
      <trkpt lat="45.12315" lon="4.67567">
        <ele>690</ele>
        <time>2021-06-03T15:17:10+02:00</time>
      </trkpt>
      <trkpt lat="45.12298" lon="4.67588">
        <ele>691</ele>
        <time>2021-06-03T15:17:27+02:00</time>
      </trkpt>
      <trkpt lat="45.12279" lon="4.67609">
        <ele>692</ele>
        <time>2021-06-03T15:17:45+02:00</time>
      </trkpt>
      <trkpt lat="45.12262" lon="4.6763">
        <ele>694</ele>
        <time>2021-06-03T15:18:01+02:00</time>
      </trkpt>
      <trkpt lat="45.12241" lon="4.67644">
        <ele>697</ele>
        <time>2021-06-03T15:18:21+02:00</time>
      </trkpt>
      <trkpt lat="45.12218" lon="4.67637">
        <ele>702</ele>
        <time>2021-06-03T15:18:40+02:00</time>
      </trkpt>
      <trkpt lat="45.12223" lon="4.67605">
        <ele>697</ele>
        <time>2021-06-03T15:19:14+02:00</time>
      </trkpt>
      <trkpt lat="45.12229" lon="4.67572">
        <ele>693</ele>
        <time>2021-06-03T15:19:37+02:00</time>
      </trkpt>
      <trkpt lat="45.12231" lon="4.67539">
        <ele>690</ele>
        <time>2021-06-03T15:19:55+02:00</time>
      </trkpt>
      <trkpt lat="45.12226" lon="4.67506">
        <ele>691</ele>
        <time>2021-06-03T15:20:11+02:00</time>
      </trkpt>
      <trkpt lat="45.12221" lon="4.67474">
        <ele>691</ele>
        <time>2021-06-03T15:20:28+02:00</time>
      </trkpt>
      <trkpt lat="45.12224" lon="4.67442">
        <ele>687</ele>
        <time>2021-06-03T15:20:49+02:00</time>
      </trkpt>
      <trkpt lat="45.12229" lon="4.6741">
        <ele>683</ele>
        <time>2021-06-03T15:21:11+02:00</time>
      </trkpt>
      <trkpt lat="45.12225" lon="4.67379">
        <ele>681</ele>
        <time>2021-06-03T15:21:27+02:00</time>
      </trkpt>
      <trkpt lat="45.1222" lon="4.67346">
        <ele>679</ele>
        <time>2021-06-03T15:23:45+02:00</time>
      </trkpt>
      <trkpt lat="45.12217" lon="4.67314">
        <ele>678</ele>
        <time>2021-06-03T15:26:22+02:00</time>
      </trkpt>
      <trkpt lat="45.12231" lon="4.67289">
        <ele>671</ele>
        <time>2021-06-03T15:26:37+02:00</time>
      </trkpt>
      <trkpt lat="45.12251" lon="4.67269">
        <ele>662</ele>
        <time>2021-06-03T15:26:53+02:00</time>
      </trkpt>
      <trkpt lat="45.12245" lon="4.67237">
        <ele>663</ele>
        <time>2021-06-03T15:27:09+02:00</time>
      </trkpt>
      <trkpt lat="45.12245" lon="4.67203">
        <ele>662</ele>
        <time>2021-06-03T15:27:24+02:00</time>
      </trkpt>
      <trkpt lat="45.12231" lon="4.67172">
        <ele>667</ele>
        <time>2021-06-03T15:27:46+02:00</time>
      </trkpt>
      <trkpt lat="45.12241" lon="4.67143">
        <ele>664</ele>
        <time>2021-06-03T15:27:59+02:00</time>
      </trkpt>
      <trkpt lat="45.12267" lon="4.67135">
        <ele>658</ele>
        <time>2021-06-03T15:28:10+02:00</time>
      </trkpt>
      <trkpt lat="45.1229" lon="4.67129">
        <ele>653</ele>
        <time>2021-06-03T15:28:23+02:00</time>
      </trkpt>
      <trkpt lat="45.12316" lon="4.67126">
        <ele>647</ele>
        <time>2021-06-03T15:28:34+02:00</time>
      </trkpt>
      <trkpt lat="45.12338" lon="4.67121">
        <ele>643</ele>
        <time>2021-06-03T15:28:43+02:00</time>
      </trkpt>
      <trkpt lat="45.12296" lon="4.67061">
        <ele>656</ele>
        <time>2021-06-03T15:29:03+02:00</time>
      </trkpt>
      <trkpt lat="45.12309" lon="4.67034">
        <ele>653</ele>
        <time>2021-06-03T15:29:20+02:00</time>
      </trkpt>
      <trkpt lat="45.12316" lon="4.67002">
        <ele>652</ele>
        <time>2021-06-03T15:29:37+02:00</time>
      </trkpt>
      <trkpt lat="45.12325" lon="4.66972">
        <ele>649</ele>
        <time>2021-06-03T15:29:56+02:00</time>
      </trkpt>
      <trkpt lat="45.1233" lon="4.6694">
        <ele>647</ele>
        <time>2021-06-03T15:30:14+02:00</time>
      </trkpt>
      <trkpt lat="45.1234" lon="4.6691">
        <ele>645</ele>
        <time>2021-06-03T15:30:36+02:00</time>
      </trkpt>
      <trkpt lat="45.12337" lon="4.66877">
        <ele>645</ele>
        <time>2021-06-03T15:30:51+02:00</time>
      </trkpt>
      <trkpt lat="45.12311" lon="4.66866">
        <ele>652</ele>
        <time>2021-06-03T15:31:08+02:00</time>
      </trkpt>
      <trkpt lat="45.12287" lon="4.6686">
        <ele>659</ele>
        <time>2021-06-03T15:31:11+02:00</time>
      </trkpt>
      <trkpt lat="45.12264" lon="4.66845">
        <ele>666</ele>
        <time>2021-06-03T15:31:14+02:00</time>
      </trkpt>
      <trkpt lat="45.12296" lon="4.66831">
        <ele>657</ele>
        <time>2021-06-03T15:31:14+02:00</time>
      </trkpt>
      <trkpt lat="45.12318" lon="4.66827">
        <ele>650</ele>
        <time>2021-06-03T15:31:16+02:00</time>
      </trkpt>
      <trkpt lat="45.12341" lon="4.66825">
        <ele>645</ele>
        <time>2021-06-03T15:31:27+02:00</time>
      </trkpt>
      <trkpt lat="45.12343" lon="4.66793">
        <ele>644</ele>
        <time>2021-06-03T15:31:48+02:00</time>
      </trkpt>
      <trkpt lat="45.12353" lon="4.66763">
        <ele>643</ele>
        <time>2021-06-03T15:32:10+02:00</time>
      </trkpt>
      <trkpt lat="45.12355" lon="4.66731">
        <ele>642</ele>
        <time>2021-06-03T15:32:28+02:00</time>
      </trkpt>
      <trkpt lat="45.12346" lon="4.66696">
        <ele>643</ele>
        <time>2021-06-03T15:32:43+02:00</time>
      </trkpt>
      <trkpt lat="45.12348" lon="4.66664">
        <ele>641</ele>
        <time>2021-06-03T15:33:02+02:00</time>
      </trkpt>
      <trkpt lat="45.12347" lon="4.66631">
        <ele>640</ele>
        <time>2021-06-03T15:33:23+02:00</time>
      </trkpt>
      <trkpt lat="45.12352" lon="4.666">
        <ele>637</ele>
        <time>2021-06-03T15:33:34+02:00</time>
      </trkpt>
      <trkpt lat="45.12341" lon="4.66572">
        <ele>637</ele>
        <time>2021-06-03T15:33:52+02:00</time>
      </trkpt>
      <trkpt lat="45.12348" lon="4.6654">
        <ele>633</ele>
        <time>2021-06-03T15:34:14+02:00</time>
      </trkpt>
      <trkpt lat="45.12334" lon="4.66515">
        <ele>632</ele>
        <time>2021-06-03T15:34:27+02:00</time>
      </trkpt>
      <trkpt lat="45.12323" lon="4.66485">
        <ele>630</ele>
        <time>2021-06-03T15:34:43+02:00</time>
      </trkpt>
      <trkpt lat="45.12312" lon="4.66457">
        <ele>627</ele>
        <time>2021-06-03T15:34:55+02:00</time>
      </trkpt>
      <trkpt lat="45.12292" lon="4.66437">
        <ele>626</ele>
        <time>2021-06-03T15:35:15+02:00</time>
      </trkpt>
      <trkpt lat="45.12278" lon="4.66411">
        <ele>624</ele>
        <time>2021-06-03T15:35:27+02:00</time>
      </trkpt>
      <trkpt lat="45.1226" lon="4.6639">
        <ele>623</ele>
        <time>2021-06-03T15:35:48+02:00</time>
      </trkpt>
      <trkpt lat="45.12241" lon="4.66369">
        <ele>622</ele>
        <time>2021-06-03T15:36:13+02:00</time>
      </trkpt>
      <trkpt lat="45.12218" lon="4.66365">
        <ele>625</ele>
        <time>2021-06-03T15:36:32+02:00</time>
      </trkpt>
      <trkpt lat="45.1221" lon="4.66333">
        <ele>620</ele>
        <time>2021-06-03T15:36:43+02:00</time>
      </trkpt>
      <trkpt lat="45.12216" lon="4.66295">
        <ele>616</ele>
        <time>2021-06-03T15:36:51+02:00</time>
      </trkpt>
      <trkpt lat="45.12198" lon="4.66325">
        <ele>621</ele>
        <time>2021-06-03T15:36:56+02:00</time>
      </trkpt>
      <trkpt lat="45.12198" lon="4.66293">
        <ele>618</ele>
        <time>2021-06-03T15:37:39+02:00</time>
      </trkpt>
      <trkpt lat="45.12179" lon="4.66273">
        <ele>619</ele>
        <time>2021-06-03T15:37:52+02:00</time>
      </trkpt>
      <trkpt lat="45.12198" lon="4.66251">
        <ele>614</ele>
        <time>2021-06-03T15:38:04+02:00</time>
      </trkpt>
      <trkpt lat="45.12134" lon="4.6607">
        <ele>619</ele>
        <time>2021-06-03T15:40:04+02:00</time>
      </trkpt>
      <trkpt lat="45.12107" lon="4.6614">
        <ele>624</ele>
        <time>2021-06-03T15:41:00+02:00</time>
      </trkpt>
      <trkpt lat="45.12127" lon="4.66121">
        <ele>620</ele>
        <time>2021-06-03T15:41:16+02:00</time>
      </trkpt>
      <trkpt lat="45.12157" lon="4.66113">
        <ele>614</ele>
        <time>2021-06-03T15:41:38+02:00</time>
      </trkpt>
      <trkpt lat="45.12158" lon="4.66151">
        <ele>614</ele>
        <time>2021-06-03T15:41:57+02:00</time>
      </trkpt>
      <trkpt lat="45.12196" lon="4.66189">
        <ele>611</ele>
        <time>2021-06-03T15:42:39+02:00</time>
      </trkpt>
      <trkpt lat="45.12212" lon="4.66163">
        <ele>608</ele>
        <time>2021-06-03T15:42:42+02:00</time>
      </trkpt>
      <trkpt lat="45.12205" lon="4.66205">
        <ele>611</ele>
        <time>2021-06-03T15:42:49+02:00</time>
      </trkpt>
      <trkpt lat="45.12191" lon="4.66248">
        <ele>615</ele>
        <time>2021-06-03T15:42:52+02:00</time>
      </trkpt>
      <trkpt lat="45.12193" lon="4.66283">
        <ele>618</ele>
        <time>2021-06-03T15:43:15+02:00</time>
      </trkpt>
      <trkpt lat="45.12192" lon="4.66315">
        <ele>621</ele>
        <time>2021-06-03T15:43:28+02:00</time>
      </trkpt>
      <trkpt lat="45.12319" lon="4.66392">
        <ele>614</ele>
        <time>2021-06-03T15:45:04+02:00</time>
      </trkpt>
      <trkpt lat="45.12363" lon="4.66417">
        <ele>613</ele>
        <time>2021-06-03T15:45:38+02:00</time>
      </trkpt>
      <trkpt lat="45.12375" lon="4.66376">
        <ele>606</ele>
        <time>2021-06-03T15:47:06+02:00</time>
      </trkpt>
      <trkpt lat="45.12398" lon="4.66369">
        <ele>604</ele>
        <time>2021-06-03T15:47:27+02:00</time>
      </trkpt>
      <trkpt lat="45.12414" lon="4.66337">
        <ele>599</ele>
        <time>2021-06-03T15:48:41+02:00</time>
      </trkpt>
      <trkpt lat="45.12398" lon="4.66313">
        <ele>597</ele>
        <time>2021-06-03T15:48:50+02:00</time>
      </trkpt>
      <trkpt lat="45.12382" lon="4.6629">
        <ele>596</ele>
        <time>2021-06-03T15:49:06+02:00</time>
      </trkpt>
      <trkpt lat="45.12378" lon="4.66256">
        <ele>592</ele>
        <time>2021-06-03T15:49:24+02:00</time>
      </trkpt>
      <trkpt lat="45.12378" lon="4.66223">
        <ele>589</ele>
        <time>2021-06-03T15:49:40+02:00</time>
      </trkpt>
      <trkpt lat="45.12399" lon="4.66199">
        <ele>585</ele>
        <time>2021-06-03T15:50:00+02:00</time>
      </trkpt>
      <trkpt lat="45.12418" lon="4.66181">
        <ele>581</ele>
        <time>2021-06-03T15:50:20+02:00</time>
      </trkpt>
      <trkpt lat="45.12436" lon="4.66158">
        <ele>576</ele>
        <time>2021-06-03T15:50:51+02:00</time>
      </trkpt>
      <trkpt lat="45.12444" lon="4.66129">
        <ele>572</ele>
        <time>2021-06-03T15:51:08+02:00</time>
      </trkpt>
      <trkpt lat="45.1245" lon="4.66096">
        <ele>568</ele>
        <time>2021-06-03T15:51:25+02:00</time>
      </trkpt>
      <trkpt lat="45.12454" lon="4.66064">
        <ele>565</ele>
        <time>2021-06-03T15:51:42+02:00</time>
      </trkpt>
      <trkpt lat="45.12475" lon="4.6605">
        <ele>563</ele>
        <time>2021-06-03T15:51:59+02:00</time>
      </trkpt>
      <trkpt lat="45.1248" lon="4.66018">
        <ele>561</ele>
        <time>2021-06-03T15:52:33+02:00</time>
      </trkpt>
      <trkpt lat="45.12456" lon="4.66001">
        <ele>560</ele>
        <time>2021-06-03T15:53:11+02:00</time>
      </trkpt>
      <trkpt lat="45.1243" lon="4.65995">
        <ele>559</ele>
        <time>2021-06-03T15:53:41+02:00</time>
      </trkpt>
      <trkpt lat="45.12405" lon="4.6599">
        <ele>561</ele>
        <time>2021-06-03T15:54:02+02:00</time>
      </trkpt>
      <trkpt lat="45.1241" lon="4.65954">
        <ele>557</ele>
        <time>2021-06-03T15:54:36+02:00</time>
      </trkpt>
      <trkpt lat="45.12426" lon="4.65929">
        <ele>553</ele>
        <time>2021-06-03T15:55:08+02:00</time>
      </trkpt>
      <trkpt lat="45.12415" lon="4.65891">
        <ele>552</ele>
        <time>2021-06-03T15:55:45+02:00</time>
      </trkpt>
      <trkpt lat="45.12405" lon="4.65861">
        <ele>553</ele>
        <time>2021-06-03T15:56:04+02:00</time>
      </trkpt>
      <trkpt lat="45.12412" lon="4.65831">
        <ele>551</ele>
        <time>2021-06-03T15:56:17+02:00</time>
      </trkpt>
      <trkpt lat="45.12419" lon="4.65796">
        <ele>548</ele>
        <time>2021-06-03T15:57:00+02:00</time>
      </trkpt>
      <trkpt lat="45.12432" lon="4.6577">
        <ele>544</ele>
        <time>2021-06-03T15:57:22+02:00</time>
      </trkpt>
      <trkpt lat="45.12444" lon="4.6574">
        <ele>540</ele>
        <time>2021-06-03T15:57:45+02:00</time>
      </trkpt>
      <trkpt lat="45.12431" lon="4.65711">
        <ele>541</ele>
        <time>2021-06-03T15:58:00+02:00</time>
      </trkpt>
      <trkpt lat="45.12445" lon="4.65685">
        <ele>537</ele>
        <time>2021-06-03T15:58:24+02:00</time>
      </trkpt>
      <trkpt lat="45.12467" lon="4.65697">
        <ele>533</ele>
        <time>2021-06-03T15:58:36+02:00</time>
      </trkpt>
      <trkpt lat="45.12486" lon="4.65715">
        <ele>531</ele>
        <time>2021-06-03T15:58:45+02:00</time>
      </trkpt>
      <trkpt lat="45.12503" lon="4.65691">
        <ele>527</ele>
        <time>2021-06-03T15:58:51+02:00</time>
      </trkpt>
      <trkpt lat="45.12506" lon="4.65655">
        <ele>525</ele>
        <time>2021-06-03T15:58:59+02:00</time>
      </trkpt>
      <trkpt lat="45.12484" lon="4.65651">
        <ele>529</ele>
        <time>2021-06-03T15:59:05+02:00</time>
      </trkpt>
      <trkpt lat="45.12446" lon="4.65658">
        <ele>535</ele>
        <time>2021-06-03T15:59:16+02:00</time>
      </trkpt>
      <trkpt lat="45.12425" lon="4.65668">
        <ele>539</ele>
        <time>2021-06-03T15:59:28+02:00</time>
      </trkpt>
      <trkpt lat="45.12405" lon="4.65644">
        <ele>543</ele>
        <time>2021-06-03T15:59:38+02:00</time>
      </trkpt>
      <trkpt lat="45.12433" lon="4.65635">
        <ele>537</ele>
        <time>2021-06-03T15:59:45+02:00</time>
      </trkpt>
      <trkpt lat="45.12415" lon="4.65665">
        <ele>540</ele>
        <time>2021-06-03T15:59:47+02:00</time>
      </trkpt>
      <trkpt lat="45.12435" lon="4.65642">
        <ele>537</ele>
        <time>2021-06-03T16:00:05+02:00</time>
      </trkpt>
      <trkpt lat="45.12453" lon="4.6562">
        <ele>534</ele>
        <time>2021-06-03T16:00:06+02:00</time>
      </trkpt>
      <trkpt lat="45.12471" lon="4.65598">
        <ele>530</ele>
        <time>2021-06-03T16:00:08+02:00</time>
      </trkpt>
      <trkpt lat="45.12487" lon="4.65573">
        <ele>527</ele>
        <time>2021-06-03T16:00:13+02:00</time>
      </trkpt>
      <trkpt lat="45.12486" lon="4.65538">
        <ele>528</ele>
        <time>2021-06-03T16:00:37+02:00</time>
      </trkpt>
      <trkpt lat="45.12504" lon="4.65518">
        <ele>525</ele>
        <time>2021-06-03T16:01:03+02:00</time>
      </trkpt>
      <trkpt lat="45.12525" lon="4.65503">
        <ele>521</ele>
        <time>2021-06-03T16:01:17+02:00</time>
      </trkpt>
      <trkpt lat="45.12542" lon="4.6548">
        <ele>516</ele>
        <time>2021-06-03T16:01:43+02:00</time>
      </trkpt>
      <trkpt lat="45.12562" lon="4.6546">
        <ele>511</ele>
        <time>2021-06-03T16:01:58+02:00</time>
      </trkpt>
      <trkpt lat="45.12585" lon="4.65458">
        <ele>506</ele>
        <time>2021-06-03T16:02:35+02:00</time>
      </trkpt>
      <trkpt lat="45.12606" lon="4.65445">
        <ele>499</ele>
        <time>2021-06-03T16:02:50+02:00</time>
      </trkpt>
      <trkpt lat="45.12624" lon="4.65464">
        <ele>495</ele>
        <time>2021-06-03T16:03:12+02:00</time>
      </trkpt>
      <trkpt lat="45.12646" lon="4.65453">
        <ele>489</ele>
        <time>2021-06-03T16:03:55+02:00</time>
      </trkpt>
      <trkpt lat="45.12668" lon="4.65464">
        <ele>484</ele>
        <time>2021-06-03T16:04:17+02:00</time>
      </trkpt>
      <trkpt lat="45.12688" lon="4.65449">
        <ele>482</ele>
        <time>2021-06-03T16:04:38+02:00</time>
      </trkpt>
      <trkpt lat="45.12701" lon="4.65475">
        <ele>481</ele>
        <time>2021-06-03T16:04:44+02:00</time>
      </trkpt>
      <trkpt lat="45.12696" lon="4.65506">
        <ele>481</ele>
        <time>2021-06-03T16:05:02+02:00</time>
      </trkpt>
      <trkpt lat="45.12719" lon="4.65496">
        <ele>477</ele>
        <time>2021-06-03T16:05:59+02:00</time>
      </trkpt>
      <trkpt lat="45.12742" lon="4.65489">
        <ele>474</ele>
        <time>2021-06-03T16:06:22+02:00</time>
      </trkpt>
      <trkpt lat="45.12758" lon="4.6552">
        <ele>473</ele>
        <time>2021-06-03T16:06:41+02:00</time>
      </trkpt>
      <trkpt lat="45.12762" lon="4.65553">
        <ele>472</ele>
        <time>2021-06-03T16:06:55+02:00</time>
      </trkpt>
      <trkpt lat="45.12789" lon="4.65576">
        <ele>474</ele>
        <time>2021-06-03T16:07:29+02:00</time>
      </trkpt>
      <trkpt lat="45.12797" lon="4.65606">
        <ele>473</ele>
        <time>2021-06-03T16:08:28+02:00</time>
      </trkpt>
      <trkpt lat="45.12819" lon="4.65624">
        <ele>472</ele>
        <time>2021-06-03T16:09:02+02:00</time>
      </trkpt>
      <trkpt lat="45.12842" lon="4.65625">
        <ele>474</ele>
        <time>2021-06-03T16:09:12+02:00</time>
      </trkpt>
      <trkpt lat="45.12904" lon="4.65756">
        <ele>465</ele>
        <time>2021-06-03T16:11:50+02:00</time>
      </trkpt>
      <trkpt lat="45.12922" lon="4.65777">
        <ele>463</ele>
        <time>2021-06-03T16:12:06+02:00</time>
      </trkpt>
      <trkpt lat="45.12937" lon="4.658">
        <ele>463</ele>
        <time>2021-06-03T16:15:14+02:00</time>
      </trkpt>
      <trkpt lat="45.12955" lon="4.65821">
        <ele>464</ele>
        <time>2021-06-03T16:15:43+02:00</time>
      </trkpt>
      <trkpt lat="45.12975" lon="4.6585">
        <ele>465</ele>
        <time>2021-06-03T16:16:11+02:00</time>
      </trkpt>
      <trkpt lat="45.12997" lon="4.65842">
        <ele>470</ele>
        <time>2021-06-03T16:16:25+02:00</time>
      </trkpt>
      <trkpt lat="45.13012" lon="4.65868">
        <ele>469</ele>
        <time>2021-06-03T16:16:43+02:00</time>
      </trkpt>
      <trkpt lat="45.13019" lon="4.65899">
        <ele>465</ele>
        <time>2021-06-03T16:16:59+02:00</time>
      </trkpt>
      <trkpt lat="45.13042" lon="4.65905">
        <ele>468</ele>
        <time>2021-06-03T16:17:33+02:00</time>
      </trkpt>
      <trkpt lat="45.13064" lon="4.65893">
        <ele>475</ele>
        <time>2021-06-03T16:17:44+02:00</time>
      </trkpt>
      <trkpt lat="45.13087" lon="4.65888">
        <ele>481</ele>
        <time>2021-06-03T16:18:02+02:00</time>
      </trkpt>
      <trkpt lat="45.1311" lon="4.65887">
        <ele>487</ele>
        <time>2021-06-03T16:18:23+02:00</time>
      </trkpt>
      <trkpt lat="45.13096" lon="4.65862">
        <ele>489</ele>
        <time>2021-06-03T16:19:14+02:00</time>
      </trkpt>
      <trkpt lat="45.13079" lon="4.65839">
        <ele>490</ele>
        <time>2021-06-03T16:19:41+02:00</time>
      </trkpt>
      <trkpt lat="45.13056" lon="4.65812">
        <ele>491</ele>
        <time>2021-06-03T16:20:09+02:00</time>
      </trkpt>
      <trkpt lat="45.13042" lon="4.65785">
        <ele>494</ele>
        <time>2021-06-03T16:20:24+02:00</time>
      </trkpt>
      <trkpt lat="45.13025" lon="4.65763">
        <ele>494</ele>
        <time>2021-06-03T16:20:45+02:00</time>
      </trkpt>
      <trkpt lat="45.13009" lon="4.65735">
        <ele>494</ele>
        <time>2021-06-03T16:21:11+02:00</time>
      </trkpt>
      <trkpt lat="45.12995" lon="4.65709">
        <ele>495</ele>
        <time>2021-06-03T16:21:32+02:00</time>
      </trkpt>
      <trkpt lat="45.12988" lon="4.65676">
        <ele>499</ele>
        <time>2021-06-03T16:21:57+02:00</time>
      </trkpt>
      <trkpt lat="45.12997" lon="4.65642">
        <ele>505</ele>
        <time>2021-06-03T16:22:31+02:00</time>
      </trkpt>
      <trkpt lat="45.12994" lon="4.6561">
        <ele>508</ele>
        <time>2021-06-03T16:22:48+02:00</time>
      </trkpt>
      <trkpt lat="45.12989" lon="4.65578">
        <ele>510</ele>
        <time>2021-06-03T16:23:15+02:00</time>
      </trkpt>
      <trkpt lat="45.12981" lon="4.65545">
        <ele>512</ele>
        <time>2021-06-03T16:23:41+02:00</time>
      </trkpt>
      <trkpt lat="45.12973" lon="4.6551">
        <ele>515</ele>
        <time>2021-06-03T16:24:23+02:00</time>
      </trkpt>
      <trkpt lat="45.12966" lon="4.65476">
        <ele>517</ele>
        <time>2021-06-03T16:24:44+02:00</time>
      </trkpt>
      <trkpt lat="45.12959" lon="4.65439">
        <ele>520</ele>
        <time>2021-06-03T16:25:09+02:00</time>
      </trkpt>
      <trkpt lat="45.12937" lon="4.65433">
        <ele>519</ele>
        <time>2021-06-03T16:25:34+02:00</time>
      </trkpt>
      <trkpt lat="45.12918" lon="4.65454">
        <ele>516</ele>
        <time>2021-06-03T16:25:41+02:00</time>
      </trkpt>
      <trkpt lat="45.12895" lon="4.65449">
        <ele>513</ele>
        <time>2021-06-03T16:25:56+02:00</time>
      </trkpt>
      <trkpt lat="45.129" lon="4.65418">
        <ele>518</ele>
        <time>2021-06-03T16:26:12+02:00</time>
      </trkpt>
      <trkpt lat="45.12878" lon="4.65405">
        <ele>517</ele>
        <time>2021-06-03T16:26:32+02:00</time>
      </trkpt>
      <trkpt lat="45.12855" lon="4.65405">
        <ele>514</ele>
        <time>2021-06-03T16:26:35+02:00</time>
      </trkpt>
      <trkpt lat="45.12851" lon="4.65374">
        <ele>518</ele>
        <time>2021-06-03T16:26:54+02:00</time>
      </trkpt>
      <trkpt lat="45.12872" lon="4.65354">
        <ele>523</ele>
        <time>2021-06-03T16:27:00+02:00</time>
      </trkpt>
      <trkpt lat="45.12897" lon="4.65341">
        <ele>528</ele>
        <time>2021-06-03T16:27:24+02:00</time>
      </trkpt>
      <trkpt lat="45.12872" lon="4.65327">
        <ele>527</ele>
        <time>2021-06-03T16:27:44+02:00</time>
      </trkpt>
      <trkpt lat="45.12904" lon="4.65313">
        <ele>531</ele>
        <time>2021-06-03T16:27:58+02:00</time>
      </trkpt>
      <trkpt lat="45.12925" lon="4.65299">
        <ele>533</ele>
        <time>2021-06-03T16:28:05+02:00</time>
      </trkpt>
      <trkpt lat="45.12815" lon="4.65197">
        <ele>527</ele>
        <time>2021-06-03T16:29:13+02:00</time>
      </trkpt>
      <trkpt lat="45.12839" lon="4.65184">
        <ele>534</ele>
        <time>2021-06-03T16:29:20+02:00</time>
      </trkpt>
      <trkpt lat="45.12864" lon="4.65179">
        <ele>538</ele>
        <time>2021-06-03T16:29:24+02:00</time>
      </trkpt>
      <trkpt lat="45.12905" lon="4.65169">
        <ele>543</ele>
        <time>2021-06-03T16:29:27+02:00</time>
      </trkpt>
      <trkpt lat="45.12928" lon="4.65162">
        <ele>545</ele>
        <time>2021-06-03T16:29:28+02:00</time>
      </trkpt>
      <trkpt lat="45.1296" lon="4.65146">
        <ele>547</ele>
        <time>2021-06-03T16:29:33+02:00</time>
      </trkpt>
      <trkpt lat="45.12982" lon="4.65137">
        <ele>548</ele>
        <time>2021-06-03T16:29:37+02:00</time>
      </trkpt>
      <trkpt lat="45.12998" lon="4.65113">
        <ele>551</ele>
        <time>2021-06-03T16:29:47+02:00</time>
      </trkpt>
      <trkpt lat="45.12984" lon="4.65089">
        <ele>553</ele>
        <time>2021-06-03T16:30:04+02:00</time>
      </trkpt>
      <trkpt lat="45.12986" lon="4.65055">
        <ele>555</ele>
        <time>2021-06-03T16:30:21+02:00</time>
      </trkpt>
      <trkpt lat="45.12987" lon="4.65012">
        <ele>558</ele>
        <time>2021-06-03T16:31:04+02:00</time>
      </trkpt>
      <trkpt lat="45.12989" lon="4.64971">
        <ele>562</ele>
        <time>2021-06-03T16:31:41+02:00</time>
      </trkpt>
      <trkpt lat="45.13004" lon="4.64946">
        <ele>565</ele>
        <time>2021-06-03T16:32:06+02:00</time>
      </trkpt>
      <trkpt lat="45.13025" lon="4.64935">
        <ele>567</ele>
        <time>2021-06-03T16:32:30+02:00</time>
      </trkpt>
      <trkpt lat="45.13048" lon="4.64936">
        <ele>569</ele>
        <time>2021-06-03T16:32:53+02:00</time>
      </trkpt>
      <trkpt lat="45.1307" lon="4.64948">
        <ele>569</ele>
        <time>2021-06-03T16:33:17+02:00</time>
      </trkpt>
      <trkpt lat="45.13092" lon="4.64958">
        <ele>570</ele>
        <time>2021-06-03T16:33:36+02:00</time>
      </trkpt>
      <trkpt lat="45.13114" lon="4.64963">
        <ele>570</ele>
        <time>2021-06-03T16:34:01+02:00</time>
      </trkpt>
      <trkpt lat="45.13139" lon="4.64966">
        <ele>571</ele>
        <time>2021-06-03T16:34:28+02:00</time>
      </trkpt>
      <trkpt lat="45.13163" lon="4.64967">
        <ele>572</ele>
        <time>2021-06-03T16:34:53+02:00</time>
      </trkpt>
      <trkpt lat="45.13188" lon="4.64967">
        <ele>572</ele>
        <time>2021-06-03T16:35:13+02:00</time>
      </trkpt>
      <trkpt lat="45.13191" lon="4.64999">
        <ele>573</ele>
        <time>2021-06-03T16:35:40+02:00</time>
      </trkpt>
      <trkpt lat="45.13213" lon="4.64997">
        <ele>573</ele>
        <time>2021-06-03T16:36:03+02:00</time>
      </trkpt>
      <trkpt lat="45.13231" lon="4.65027">
        <ele>575</ele>
        <time>2021-06-03T16:37:13+02:00</time>
      </trkpt>
      <trkpt lat="45.13237" lon="4.65059">
        <ele>577</ele>
        <time>2021-06-03T16:37:27+02:00</time>
      </trkpt>
      <trkpt lat="45.13222" lon="4.65088">
        <ele>577</ele>
        <time>2021-06-03T16:37:47+02:00</time>
      </trkpt>
      <trkpt lat="45.13228" lon="4.65122">
        <ele>579</ele>
        <time>2021-06-03T16:38:11+02:00</time>
      </trkpt>
      <trkpt lat="45.13251" lon="4.65147">
        <ele>583</ele>
        <time>2021-06-03T16:38:39+02:00</time>
      </trkpt>
      <trkpt lat="45.13275" lon="4.65156">
        <ele>583</ele>
        <time>2021-06-03T16:38:57+02:00</time>
      </trkpt>
      <trkpt lat="45.13289" lon="4.65181">
        <ele>584</ele>
        <time>2021-06-03T16:39:31+02:00</time>
      </trkpt>
      <trkpt lat="45.13302" lon="4.65209">
        <ele>584</ele>
        <time>2021-06-03T16:39:39+02:00</time>
      </trkpt>
      <trkpt lat="45.13325" lon="4.65214">
        <ele>584</ele>
        <time>2021-06-03T16:39:49+02:00</time>
      </trkpt>
      <trkpt lat="45.13347" lon="4.65222">
        <ele>583</ele>
        <time>2021-06-03T16:40:11+02:00</time>
      </trkpt>
      <trkpt lat="45.13359" lon="4.65251">
        <ele>584</ele>
        <time>2021-06-03T16:40:20+02:00</time>
      </trkpt>
      <trkpt lat="45.13368" lon="4.65281">
        <ele>585</ele>
        <time>2021-06-03T16:40:35+02:00</time>
      </trkpt>
      <trkpt lat="45.13372" lon="4.65314">
        <ele>586</ele>
        <time>2021-06-03T16:40:45+02:00</time>
      </trkpt>
      <trkpt lat="45.1338" lon="4.65345">
        <ele>587</ele>
        <time>2021-06-03T16:40:57+02:00</time>
      </trkpt>
      <trkpt lat="45.13405" lon="4.65347">
        <ele>584</ele>
        <time>2021-06-03T16:41:12+02:00</time>
      </trkpt>
      <trkpt lat="45.13413" lon="4.65382">
        <ele>585</ele>
        <time>2021-06-03T16:41:35+02:00</time>
      </trkpt>
      <trkpt lat="45.13413" lon="4.65416">
        <ele>587</ele>
        <time>2021-06-03T16:41:44+02:00</time>
      </trkpt>
      <trkpt lat="45.13435" lon="4.65426">
        <ele>586</ele>
        <time>2021-06-03T16:41:54+02:00</time>
      </trkpt>
      <trkpt lat="45.13456" lon="4.65438">
        <ele>585</ele>
        <time>2021-06-03T16:42:08+02:00</time>
      </trkpt>
      <trkpt lat="45.13479" lon="4.65446">
        <ele>584</ele>
        <time>2021-06-03T16:42:26+02:00</time>
      </trkpt>
      <trkpt lat="45.13501" lon="4.65453">
        <ele>582</ele>
        <time>2021-06-03T16:42:41+02:00</time>
      </trkpt>
      <trkpt lat="45.13521" lon="4.6547">
        <ele>580</ele>
        <time>2021-06-03T16:42:57+02:00</time>
      </trkpt>
      <trkpt lat="45.13507" lon="4.65502">
        <ele>581</ele>
        <time>2021-06-03T16:43:16+02:00</time>
      </trkpt>
      <trkpt lat="45.13496" lon="4.65531">
        <ele>580</ele>
        <time>2021-06-03T16:43:26+02:00</time>
      </trkpt>
      <trkpt lat="45.13521" lon="4.65534">
        <ele>577</ele>
        <time>2021-06-03T16:43:36+02:00</time>
      </trkpt>
      <trkpt lat="45.1354" lon="4.65551">
        <ele>575</ele>
        <time>2021-06-03T16:44:06+02:00</time>
      </trkpt>
      <trkpt lat="45.13526" lon="4.65516">
        <ele>578</ele>
        <time>2021-06-03T16:44:51+02:00</time>
      </trkpt>
      <trkpt lat="45.135" lon="4.6552">
        <ele>580</ele>
        <time>2021-06-03T16:45:24+02:00</time>
      </trkpt>
      <trkpt lat="45.13517" lon="4.655">
        <ele>580</ele>
        <time>2021-06-03T16:46:01+02:00</time>
      </trkpt>
      <trkpt lat="45.13495" lon="4.65505">
        <ele>582</ele>
        <time>2021-06-03T16:48:10+02:00</time>
      </trkpt>
      <trkpt lat="45.13523" lon="4.65505">
        <ele>579</ele>
        <time>2021-06-03T16:48:47+02:00</time>
      </trkpt>
      <trkpt lat="45.1354" lon="4.65483">
        <ele>578</ele>
        <time>2021-06-03T16:49:33+02:00</time>
      </trkpt>
      <trkpt lat="45.13541" lon="4.65527">
        <ele>576</ele>
        <time>2021-06-03T16:49:53+02:00</time>
      </trkpt>
      <trkpt lat="45.13537" lon="4.6556">
        <ele>574</ele>
        <time>2021-06-03T16:50:01+02:00</time>
      </trkpt>
      <trkpt lat="45.13548" lon="4.65589">
        <ele>572</ele>
        <time>2021-06-03T16:50:18+02:00</time>
      </trkpt>
      <trkpt lat="45.1355" lon="4.65629">
        <ele>568</ele>
        <time>2021-06-03T16:50:31+02:00</time>
      </trkpt>
      <trkpt lat="45.13555" lon="4.65661">
        <ele>565</ele>
        <time>2021-06-03T16:50:42+02:00</time>
      </trkpt>
      <trkpt lat="45.13571" lon="4.65684">
        <ele>562</ele>
        <time>2021-06-03T16:51:05+02:00</time>
      </trkpt>
      <trkpt lat="45.13578" lon="4.65714">
        <ele>558</ele>
        <time>2021-06-03T16:51:26+02:00</time>
      </trkpt>
      <trkpt lat="45.13587" lon="4.65744">
        <ele>555</ele>
        <time>2021-06-03T16:51:45+02:00</time>
      </trkpt>
      <trkpt lat="45.13604" lon="4.65766">
        <ele>554</ele>
        <time>2021-06-03T16:52:04+02:00</time>
      </trkpt>
      <trkpt lat="45.13599" lon="4.65798">
        <ele>550</ele>
        <time>2021-06-03T16:52:17+02:00</time>
      </trkpt>
      <trkpt lat="45.13603" lon="4.65831">
        <ele>547</ele>
        <time>2021-06-03T16:52:33+02:00</time>
      </trkpt>
      <trkpt lat="45.13594" lon="4.65864">
        <ele>543</ele>
        <time>2021-06-03T16:52:47+02:00</time>
      </trkpt>
      <trkpt lat="45.13612" lon="4.65836">
        <ele>548</ele>
        <time>2021-06-03T16:52:57+02:00</time>
      </trkpt>
      <trkpt lat="45.13634" lon="4.65858">
        <ele>548</ele>
        <time>2021-06-03T16:53:10+02:00</time>
      </trkpt>
      <trkpt lat="45.13645" lon="4.65889">
        <ele>545</ele>
        <time>2021-06-03T16:53:19+02:00</time>
      </trkpt>
      <trkpt lat="45.13664" lon="4.65908">
        <ele>545</ele>
        <time>2021-06-03T16:53:33+02:00</time>
      </trkpt>
      <trkpt lat="45.13683" lon="4.65928">
        <ele>544</ele>
        <time>2021-06-03T16:53:52+02:00</time>
      </trkpt>
      <trkpt lat="45.13703" lon="4.65943">
        <ele>543</ele>
        <time>2021-06-03T16:54:09+02:00</time>
      </trkpt>
      <trkpt lat="45.13721" lon="4.65966">
        <ele>542</ele>
        <time>2021-06-03T16:54:21+02:00</time>
      </trkpt>
      <trkpt lat="45.13743" lon="4.65972">
        <ele>543</ele>
        <time>2021-06-03T16:54:45+02:00</time>
      </trkpt>
      <trkpt lat="45.13763" lon="4.65992">
        <ele>541</ele>
        <time>2021-06-03T16:55:06+02:00</time>
      </trkpt>
      <trkpt lat="45.13784" lon="4.66007">
        <ele>539</ele>
        <time>2021-06-03T16:55:23+02:00</time>
      </trkpt>
      <trkpt lat="45.13805" lon="4.66024">
        <ele>538</ele>
        <time>2021-06-03T16:55:33+02:00</time>
      </trkpt>
      <trkpt lat="45.13821" lon="4.66053">
        <ele>536</ele>
        <time>2021-06-03T16:56:18+02:00</time>
      </trkpt>
      <trkpt lat="45.13827" lon="4.66087">
        <ele>535</ele>
        <time>2021-06-03T16:56:42+02:00</time>
      </trkpt>
      <trkpt lat="45.13826" lon="4.66121">
        <ele>533</ele>
        <time>2021-06-03T16:56:52+02:00</time>
      </trkpt>
      <trkpt lat="45.1383" lon="4.66155">
        <ele>532</ele>
        <time>2021-06-03T16:57:04+02:00</time>
      </trkpt>
      <trkpt lat="45.13852" lon="4.66164">
        <ele>531</ele>
        <time>2021-06-03T16:57:27+02:00</time>
      </trkpt>
      <trkpt lat="45.1386" lon="4.66194">
        <ele>530</ele>
        <time>2021-06-03T16:57:35+02:00</time>
      </trkpt>
      <trkpt lat="45.1388" lon="4.66211">
        <ele>530</ele>
        <time>2021-06-03T16:57:57+02:00</time>
      </trkpt>
      <trkpt lat="45.13896" lon="4.66235">
        <ele>530</ele>
        <time>2021-06-03T16:58:26+02:00</time>
      </trkpt>
      <trkpt lat="45.13917" lon="4.66252">
        <ele>531</ele>
        <time>2021-06-03T16:58:45+02:00</time>
      </trkpt>
      <trkpt lat="45.13932" lon="4.66278">
        <ele>529</ele>
        <time>2021-06-03T16:58:54+02:00</time>
      </trkpt>
      <trkpt lat="45.1395" lon="4.66297">
        <ele>527</ele>
        <time>2021-06-03T16:59:08+02:00</time>
      </trkpt>
      <trkpt lat="45.13967" lon="4.66322">
        <ele>526</ele>
        <time>2021-06-03T16:59:39+02:00</time>
      </trkpt>
      <trkpt lat="45.13991" lon="4.66318">
        <ele>526</ele>
        <time>2021-06-03T16:59:47+02:00</time>
      </trkpt>
      <trkpt lat="45.14013" lon="4.66326">
        <ele>526</ele>
        <time>2021-06-03T17:00:01+02:00</time>
      </trkpt>
      <trkpt lat="45.14036" lon="4.66325">
        <ele>524</ele>
        <time>2021-06-03T17:00:16+02:00</time>
      </trkpt>
      <trkpt lat="45.1406" lon="4.66327">
        <ele>523</ele>
        <time>2021-06-03T17:00:35+02:00</time>
      </trkpt>
      <trkpt lat="45.14079" lon="4.66312">
        <ele>523</ele>
        <time>2021-06-03T17:00:44+02:00</time>
      </trkpt>
      <trkpt lat="45.141" lon="4.663">
        <ele>522</ele>
        <time>2021-06-03T17:00:59+02:00</time>
      </trkpt>
      <trkpt lat="45.14109" lon="4.6633">
        <ele>521</ele>
        <time>2021-06-03T17:01:16+02:00</time>
      </trkpt>
      <trkpt lat="45.14124" lon="4.66357">
        <ele>519</ele>
        <time>2021-06-03T17:01:40+02:00</time>
      </trkpt>
    </trkseg>
  </trk>
</gpx>